sensor_id;sensor_type;location;lat;lon;timestamp;P1;durP1;ratioP1;P2;durP2;ratioP2
14001;SDS011;7076;51.280;12.584;2022-08-03T00:00:53;2.15;;;1.92;;
14001;SDS011;7076;51.280;12.584;2022-08-03T00:05:57;2.72;;;1.75;;
14001;SDS011;7076;51.280;12.584;2022-08-03T00:11:05;4.13;;;2.15;;
14001;SDS011;7076;51.280;12.584;2022-08-03T00:16:08;6.32;;;2.22;;
14001;SDS011;7076;51.280;12.584;2022-08-03T00:21:13;3.63;;;2.08;;
14001;SDS011;7076;51.280;12.584;2022-08-03T00:26:16;3.78;;;1.90;;
14001;SDS011;7076;51.280;12.584;2022-08-03T00:31:18;3.33;;;1.88;;
14001;SDS011;7076;51.280;12.584;2022-08-03T00:36:43;3.50;;;1.90;;
14001;SDS011;7076;51.280;12.584;2022-08-03T00:41:45;2.58;;;2.10;;
14001;SDS011;7076;51.280;12.584;2022-08-03T00:46:49;2.92;;;1.80;;
14001;SDS011;7076;51.280;12.584;2022-08-03T00:51:53;2.30;;;1.80;;
14001;SDS011;7076;51.280;12.584;2022-08-03T00:56:56;2.85;;;1.77;;
14001;SDS011;7076;51.280;12.584;2022-08-03T01:02:00;2.80;;;1.80;;
14001;SDS011;7076;51.280;12.584;2022-08-03T01:07:08;2.15;;;1.95;;
14001;SDS011;7076;51.280;12.584;2022-08-03T01:12:16;5.28;;;2.38;;
14001;SDS011;7076;51.280;12.584;2022-08-03T01:17:24;3.75;;;2.10;;
14001;SDS011;7076;51.280;12.584;2022-08-03T01:22:39;4.68;;;2.15;;
14001;SDS011;7076;51.280;12.584;2022-08-03T01:27:54;3.10;;;2.13;;
14001;SDS011;7076;51.280;12.584;2022-08-03T01:33:01;3.20;;;1.95;;
14001;SDS011;7076;51.280;12.584;2022-08-03T01:38:08;4.47;;;2.40;;
14001;SDS011;7076;51.280;12.584;2022-08-03T01:43:15;3.25;;;1.88;;
14001;SDS011;7076;51.280;12.584;2022-08-03T01:48:41;4.22;;;2.00;;
14001;SDS011;7076;51.280;12.584;2022-08-03T01:53:45;3.90;;;2.05;;
14001;SDS011;7076;51.280;12.584;2022-08-03T01:58:48;2.88;;;2.22;;
14001;SDS011;7076;51.280;12.584;2022-08-03T02:03:52;3.42;;;2.30;;
14001;SDS011;7076;51.280;12.584;2022-08-03T02:09:01;2.88;;;2.17;;
14001;SDS011;7076;51.280;12.584;2022-08-03T02:14:05;3.83;;;2.40;;
14001;SDS011;7076;51.280;12.584;2022-08-03T02:19:09;2.75;;;2.40;;
14001;SDS011;7076;51.280;12.584;2022-08-03T02:24:13;4.55;;;2.03;;
14001;SDS011;7076;51.280;12.584;2022-08-03T02:29:17;2.83;;;2.50;;
14001;SDS011;7076;51.280;12.584;2022-08-03T02:34:43;2.83;;;2.42;;
14001;SDS011;7076;51.280;12.584;2022-08-03T02:39:47;2.60;;;2.40;;
14001;SDS011;7076;51.280;12.584;2022-08-03T02:44:54;3.08;;;2.55;;
14001;SDS011;7076;51.280;12.584;2022-08-03T02:49:59;2.75;;;2.55;;
14001;SDS011;7076;51.280;12.584;2022-08-03T02:55:03;2.78;;;2.47;;
14001;SDS011;7076;51.280;12.584;2022-08-03T03:00:07;3.25;;;2.35;;
14001;SDS011;7076;51.280;12.584;2022-08-03T03:05:12;3.75;;;2.60;;
14001;SDS011;7076;51.280;12.584;2022-08-03T03:10:36;4.20;;;2.70;;
14001;SDS011;7076;51.280;12.584;2022-08-03T03:15:39;3.83;;;3.03;;
14001;SDS011;7076;51.280;12.584;2022-08-03T03:20:43;3.58;;;2.42;;
14001;SDS011;7076;51.280;12.584;2022-08-03T03:25:47;3.85;;;3.05;;
14001;SDS011;7076;51.280;12.584;2022-08-03T03:30:49;2.50;;;2.30;;
14001;SDS011;7076;51.280;12.584;2022-08-03T03:35:55;3.00;;;2.80;;
14001;SDS011;7076;51.280;12.584;2022-08-03T03:40:59;2.60;;;2.40;;
14001;SDS011;7076;51.280;12.584;2022-08-03T03:46:01;2.63;;;2.38;;
14001;SDS011;7076;51.280;12.584;2022-08-03T03:51:06;3.40;;;2.85;;
14001;SDS011;7076;51.280;12.584;2022-08-03T03:56:09;4.32;;;2.65;;
14001;SDS011;7076;51.280;12.584;2022-08-03T04:01:12;4.55;;;2.67;;
14001;SDS011;7076;51.280;12.584;2022-08-03T04:06:16;4.43;;;3.20;;
14001;SDS011;7076;51.280;12.584;2022-08-03T04:11:38;4.88;;;2.78;;
14001;SDS011;7076;51.280;12.584;2022-08-03T04:16:44;3.28;;;2.72;;
14001;SDS011;7076;51.280;12.584;2022-08-03T04:21:49;3.15;;;2.75;;
14001;SDS011;7076;51.280;12.584;2022-08-03T04:26:57;4.55;;;3.10;;
14001;SDS011;7076;51.280;12.584;2022-08-03T04:32:02;3.15;;;2.85;;
14001;SDS011;7076;51.280;12.584;2022-08-03T04:37:10;4.25;;;2.60;;
14001;SDS011;7076;51.280;12.584;2022-08-03T04:42:14;8.90;;;5.97;;
14001;SDS011;7076;51.280;12.584;2022-08-03T04:47:18;5.45;;;4.22;;
14001;SDS011;7076;51.280;12.584;2022-08-03T04:52:22;5.47;;;3.83;;
14001;SDS011;7076;51.280;12.584;2022-08-03T04:57:25;3.35;;;3.05;;
14001;SDS011;7076;51.280;12.584;2022-08-03T05:02:28;4.15;;;3.45;;
14001;SDS011;7076;51.280;12.584;2022-08-03T05:07:33;5.47;;;4.43;;
14001;SDS011;7076;51.280;12.584;2022-08-03T05:12:37;8.18;;;4.43;;
14001;SDS011;7076;51.280;12.584;2022-08-03T05:17:40;9.52;;;5.38;;
14001;SDS011;7076;51.280;12.584;2022-08-03T05:22:44;5.75;;;5.05;;
14001;SDS011;7076;51.280;12.584;2022-08-03T05:27:47;5.53;;;5.03;;
14001;SDS011;7076;51.280;12.584;2022-08-03T05:32:49;6.20;;;5.38;;
14001;SDS011;7076;51.280;12.584;2022-08-03T05:37:55;8.57;;;6.53;;
14001;SDS011;7076;51.280;12.584;2022-08-03T05:42:58;9.88;;;7.97;;
14001;SDS011;7076;51.280;12.584;2022-08-03T05:48:01;6.05;;;4.72;;
14001;SDS011;7076;51.280;12.584;2022-08-03T05:53:05;5.50;;;5.03;;
14001;SDS011;7076;51.280;12.584;2022-08-03T05:58:07;5.72;;;4.22;;
14001;SDS011;7076;51.280;12.584;2022-08-03T06:03:11;4.93;;;3.97;;
14001;SDS011;7076;51.280;12.584;2022-08-03T06:08:15;6.35;;;4.00;;
14001;SDS011;7076;51.280;12.584;2022-08-03T06:13:18;4.20;;;3.53;;
14001;SDS011;7076;51.280;12.584;2022-08-03T06:18:21;4.72;;;3.47;;
14001;SDS011;7076;51.280;12.584;2022-08-03T06:23:26;3.47;;;3.17;;
14001;SDS011;7076;51.280;12.584;2022-08-03T06:28:49;5.32;;;3.33;;
14001;SDS011;7076;51.280;12.584;2022-08-03T06:33:54;4.65;;;3.30;;
14001;SDS011;7076;51.280;12.584;2022-08-03T06:39:18;3.60;;;3.30;;
14001;SDS011;7076;51.280;12.584;2022-08-03T06:44:24;5.93;;;3.35;;
14001;SDS011;7076;51.280;12.584;2022-08-03T06:49:27;3.38;;;2.72;;
14001;SDS011;7076;51.280;12.584;2022-08-03T06:54:32;3.65;;;3.13;;
14001;SDS011;7076;51.280;12.584;2022-08-03T06:59:36;5.20;;;3.35;;
14001;SDS011;7076;51.280;12.584;2022-08-03T07:04:59;4.50;;;2.97;;
14001;SDS011;7076;51.280;12.584;2022-08-03T07:10:04;6.32;;;3.08;;
14001;SDS011;7076;51.280;12.584;2022-08-03T07:15:09;3.90;;;2.58;;
14001;SDS011;7076;51.280;12.584;2022-08-03T07:20:32;2.83;;;2.55;;
14001;SDS011;7076;51.280;12.584;2022-08-03T07:25:36;4.63;;;2.60;;
14001;SDS011;7076;51.280;12.584;2022-08-03T07:30:39;6.32;;;2.65;;
14001;SDS011;7076;51.280;12.584;2022-08-03T07:35:41;3.45;;;2.47;;
14001;SDS011;7076;51.280;12.584;2022-08-03T07:40:46;3.25;;;2.13;;
14001;SDS011;7076;51.280;12.584;2022-08-03T07:45:48;4.00;;;2.33;;
14001;SDS011;7076;51.280;12.584;2022-08-03T07:50:51;2.53;;;1.85;;
14001;SDS011;7076;51.280;12.584;2022-08-03T07:55:55;3.88;;;2.35;;
14001;SDS011;7076;51.280;12.584;2022-08-03T08:00:58;5.03;;;2.45;;
14001;SDS011;7076;51.280;12.584;2022-08-03T08:06:01;2.95;;;2.13;;
14001;SDS011;7076;51.280;12.584;2022-08-03T08:11:07;2.58;;;1.90;;
14001;SDS011;7076;51.280;12.584;2022-08-03T08:16:10;2.67;;;1.80;;
14001;SDS011;7076;51.280;12.584;2022-08-03T08:21:13;2.00;;;1.80;;
14001;SDS011;7076;51.280;12.584;2022-08-03T08:26:18;4.60;;;1.70;;
14001;SDS011;7076;51.280;12.584;2022-08-03T08:31:21;2.53;;;1.65;;
14001;SDS011;7076;51.280;12.584;2022-08-03T08:36:23;2.22;;;1.95;;
14001;SDS011;7076;51.280;12.584;2022-08-03T08:41:27;2.10;;;1.75;;
14001;SDS011;7076;51.280;12.584;2022-08-03T08:46:33;1.70;;;1.38;;
14001;SDS011;7076;51.280;12.584;2022-08-03T08:51:36;2.15;;;1.42;;
14001;SDS011;7076;51.280;12.584;2022-08-03T08:57:03;2.20;;;1.40;;
14001;SDS011;7076;51.280;12.584;2022-08-03T09:02:28;1.65;;;1.33;;
14001;SDS011;7076;51.280;12.584;2022-08-03T09:07:31;2.10;;;1.55;;
14001;SDS011;7076;51.280;12.584;2022-08-03T09:12:40;1.75;;;1.50;;
14001;SDS011;7076;51.280;12.584;2022-08-03T09:17:44;1.45;;;1.20;;
14001;SDS011;7076;51.280;12.584;2022-08-03T09:22:52;2.13;;;1.80;;
14001;SDS011;7076;51.280;12.584;2022-08-03T09:28:04;3.92;;;1.85;;
14001;SDS011;7076;51.280;12.584;2022-08-03T09:33:09;1.40;;;1.25;;
14001;SDS011;7076;51.280;12.584;2022-08-03T09:38:13;1.63;;;1.48;;
14001;SDS011;7076;51.280;12.584;2022-08-03T09:43:19;2.85;;;1.38;;
14001;SDS011;7076;51.280;12.584;2022-08-03T09:48:23;2.22;;;1.30;;
14001;SDS011;7076;51.280;12.584;2022-08-03T09:53:27;1.30;;;1.20;;
14001;SDS011;7076;51.280;12.584;2022-08-03T09:58:31;2.08;;;1.35;;
14001;SDS011;7076;51.280;12.584;2022-08-03T10:03:34;1.40;;;1.30;;
14001;SDS011;7076;51.280;12.584;2022-08-03T10:09:04;2.38;;;1.48;;
14001;SDS011;7076;51.280;12.584;2022-08-03T10:14:10;2.20;;;1.30;;
14001;SDS011;7076;51.280;12.584;2022-08-03T10:19:19;3.08;;;1.42;;
14001;SDS011;7076;51.280;12.584;2022-08-03T10:24:23;2.05;;;1.30;;
14001;SDS011;7076;51.280;12.584;2022-08-03T10:29:29;2.58;;;1.40;;
14001;SDS011;7076;51.280;12.584;2022-08-03T10:34:38;1.35;;;1.20;;
14001;SDS011;7076;51.280;12.584;2022-08-03T10:39:45;1.55;;;1.05;;
14001;SDS011;7076;51.280;12.584;2022-08-03T10:44:59;0.98;;;0.98;;
14001;SDS011;7076;51.280;12.584;2022-08-03T10:50:05;1.60;;;1.40;;
14001;SDS011;7076;51.280;12.584;2022-08-03T11:00:52;3.22;;;1.38;;
14001;SDS011;7076;51.280;12.584;2022-08-03T11:06:13;1.00;;;1.00;;
14001;SDS011;7076;51.280;12.584;2022-08-03T11:11:24;2.35;;;1.10;;
14001;SDS011;7076;51.280;12.584;2022-08-03T11:16:31;1.58;;;1.48;;
14001;SDS011;7076;51.280;12.584;2022-08-03T11:21:54;2.40;;;1.15;;
14001;SDS011;7076;51.280;12.584;2022-08-03T11:38:02;2.38;;;1.30;;
14001;SDS011;7076;51.280;12.584;2022-08-03T11:43:07;3.33;;;1.25;;
14001;SDS011;7076;51.280;12.584;2022-08-03T11:48:13;1.25;;;1.10;;
14001;SDS011;7076;51.280;12.584;2022-08-03T11:53:17;1.33;;;1.23;;
14001;SDS011;7076;51.280;12.584;2022-08-03T11:58:21;2.03;;;0.98;;
14001;SDS011;7076;51.280;12.584;2022-08-03T12:03:46;0.90;;;0.90;;
14001;SDS011;7076;51.280;12.584;2022-08-03T12:08:49;1.27;;;1.00;;
14001;SDS011;7076;51.280;12.584;2022-08-03T12:13:52;1.92;;;0.90;;
14001;SDS011;7076;51.280;12.584;2022-08-03T12:19:16;1.05;;;0.90;;
14001;SDS011;7076;51.280;12.584;2022-08-03T12:24:19;1.88;;;1.00;;
14001;SDS011;7076;51.280;12.584;2022-08-03T12:29:22;1.15;;;0.82;;
14001;SDS011;7076;51.280;12.584;2022-08-03T12:39:48;1.08;;;0.90;;
14001;SDS011;7076;51.280;12.584;2022-08-03T12:45:18;0.93;;;0.82;;
14001;SDS011;7076;51.280;12.584;2022-08-03T12:50:24;0.88;;;0.88;;
14001;SDS011;7076;51.280;12.584;2022-08-03T12:55:32;1.55;;;1.08;;
14001;SDS011;7076;51.280;12.584;2022-08-03T13:00:56;2.05;;;0.88;;
14001;SDS011;7076;51.280;12.584;2022-08-03T13:06:00;0.80;;;0.80;;
14001;SDS011;7076;51.280;12.584;2022-08-03T13:11:16;0.85;;;0.85;;
14001;SDS011;7076;51.280;12.584;2022-08-03T13:16:23;1.95;;;0.75;;
14001;SDS011;7076;51.280;12.584;2022-08-03T13:21:27;1.85;;;0.95;;
14001;SDS011;7076;51.280;12.584;2022-08-03T13:26:30;0.80;;;0.80;;
14001;SDS011;7076;51.280;12.584;2022-08-03T13:31:33;1.00;;;0.90;;
14001;SDS011;7076;51.280;12.584;2022-08-03T13:36:51;0.88;;;0.88;;
14001;SDS011;7076;51.280;12.584;2022-08-03T13:42:10;0.90;;;0.90;;
14001;SDS011;7076;51.280;12.584;2022-08-03T13:47:13;2.03;;;1.00;;
14001;SDS011;7076;51.280;12.584;2022-08-03T13:52:17;1.15;;;0.90;;
14001;SDS011;7076;51.280;12.584;2022-08-03T13:57:21;0.95;;;0.95;;
14001;SDS011;7076;51.280;12.584;2022-08-03T14:02:44;1.92;;;0.82;;
14001;SDS011;7076;51.280;12.584;2022-08-03T14:07:48;2.25;;;0.80;;
14001;SDS011;7076;51.280;12.584;2022-08-03T14:12:57;0.93;;;0.80;;
14001;SDS011;7076;51.280;12.584;2022-08-03T14:18:00;0.95;;;0.88;;
14001;SDS011;7076;51.280;12.584;2022-08-03T14:23:05;1.23;;;1.13;;
14001;SDS011;7076;51.280;12.584;2022-08-03T14:28:08;0.90;;;0.90;;
14001;SDS011;7076;51.280;12.584;2022-08-03T14:33:12;1.63;;;0.90;;
14001;SDS011;7076;51.280;12.584;2022-08-03T14:38:16;0.98;;;0.80;;
14001;SDS011;7076;51.280;12.584;2022-08-03T14:43:19;0.60;;;0.60;;
14001;SDS011;7076;51.280;12.584;2022-08-03T14:48:22;2.13;;;0.80;;
14001;SDS011;7076;51.280;12.584;2022-08-03T14:53:48;1.40;;;0.80;;
14001;SDS011;7076;51.280;12.584;2022-08-03T14:58:51;1.00;;;0.90;;
14001;SDS011;7076;51.280;12.584;2022-08-03T15:03:54;3.03;;;0.90;;
14001;SDS011;7076;51.280;12.584;2022-08-03T15:08:58;1.52;;;1.00;;
14001;SDS011;7076;51.280;12.584;2022-08-03T15:14:21;1.20;;;1.10;;
14001;SDS011;7076;51.280;12.584;2022-08-03T15:19:33;1.65;;;1.00;;
14001;SDS011;7076;51.280;12.584;2022-08-03T15:24:58;1.35;;;1.00;;
14001;SDS011;7076;51.280;12.584;2022-08-03T15:30:00;1.05;;;0.93;;
14001;SDS011;7076;51.280;12.584;2022-08-03T15:35:10;1.48;;;0.90;;
14001;SDS011;7076;51.280;12.584;2022-08-03T15:40:14;2.08;;;0.98;;
14001;SDS011;7076;51.280;12.584;2022-08-03T15:45:18;2.33;;;0.95;;
14001;SDS011;7076;51.280;12.584;2022-08-03T15:50:21;0.88;;;0.75;;
14001;SDS011;7076;51.280;12.584;2022-08-03T15:55:25;2.50;;;0.95;;
14001;SDS011;7076;51.280;12.584;2022-08-03T16:00:28;1.20;;;1.10;;
14001;SDS011;7076;51.280;12.584;2022-08-03T16:05:34;0.80;;;0.70;;
14001;SDS011;7076;51.280;12.584;2022-08-03T16:10:38;0.88;;;0.88;;
14001;SDS011;7076;51.280;12.584;2022-08-03T16:15:41;1.00;;;1.00;;
14001;SDS011;7076;51.280;12.584;2022-08-03T16:20:44;1.23;;;0.90;;
14001;SDS011;7076;51.280;12.584;2022-08-03T16:25:48;1.70;;;1.00;;
14001;SDS011;7076;51.280;12.584;2022-08-03T16:30:51;1.85;;;0.90;;
14001;SDS011;7076;51.280;12.584;2022-08-03T16:35:54;0.93;;;0.77;;
14001;SDS011;7076;51.280;12.584;2022-08-03T16:40:58;2.50;;;0.88;;
14001;SDS011;7076;51.280;12.584;2022-08-03T16:46:00;2.20;;;1.00;;
14001;SDS011;7076;51.280;12.584;2022-08-03T16:51:03;1.25;;;1.00;;
14001;SDS011;7076;51.280;12.584;2022-08-03T16:56:07;1.45;;;0.98;;
14001;SDS011;7076;51.280;12.584;2022-08-03T17:01:12;0.85;;;0.85;;
14001;SDS011;7076;51.280;12.584;2022-08-03T17:06:24;1.13;;;1.05;;
14001;SDS011;7076;51.280;12.584;2022-08-03T17:11:37;0.90;;;0.82;;
14001;SDS011;7076;51.280;12.584;2022-08-03T17:16:45;0.90;;;0.90;;
14001;SDS011;7076;51.280;12.584;2022-08-03T17:21:55;0.98;;;0.90;;
14001;SDS011;7076;51.280;12.584;2022-08-03T17:27:07;3.70;;;0.90;;
14001;SDS011;7076;51.280;12.584;2022-08-03T17:32:31;0.88;;;0.88;;
14001;SDS011;7076;51.280;12.584;2022-08-03T17:37:35;0.93;;;0.77;;
14001;SDS011;7076;51.280;12.584;2022-08-03T17:43:00;1.05;;;0.95;;
14001;SDS011;7076;51.280;12.584;2022-08-03T17:48:24;1.15;;;0.90;;
14001;SDS011;7076;51.280;12.584;2022-08-03T17:53:27;2.95;;;1.17;;
14001;SDS011;7076;51.280;12.584;2022-08-03T17:58:45;1.10;;;0.85;;
14001;SDS011;7076;51.280;12.584;2022-08-03T18:03:55;2.35;;;0.90;;
14001;SDS011;7076;51.280;12.584;2022-08-03T18:09:11;1.80;;;0.98;;
14001;SDS011;7076;51.280;12.584;2022-08-03T18:14:37;0.80;;;0.80;;
14001;SDS011;7076;51.280;12.584;2022-08-03T18:19:58;0.85;;;0.85;;
14001;SDS011;7076;51.280;12.584;2022-08-03T18:25:15;2.20;;;1.30;;
14001;SDS011;7076;51.280;12.584;2022-08-03T18:30:41;4.53;;;1.55;;
14001;SDS011;7076;51.280;12.584;2022-08-03T18:35:55;2.17;;;1.15;;
14001;SDS011;7076;51.280;12.584;2022-08-03T18:40:58;5.25;;;2.00;;
14001;SDS011;7076;51.280;12.584;2022-08-03T18:46:04;0.90;;;0.90;;
14001;SDS011;7076;51.280;12.584;2022-08-03T18:51:08;2.60;;;1.20;;
14001;SDS011;7076;51.280;12.584;2022-08-03T18:56:30;1.20;;;1.00;;
14001;SDS011;7076;51.280;12.584;2022-08-03T19:01:39;3.40;;;1.20;;
14001;SDS011;7076;51.280;12.584;2022-08-03T19:07:04;2.40;;;1.40;;
14001;SDS011;7076;51.280;12.584;2022-08-03T19:12:09;1.40;;;1.25;;
14001;SDS011;7076;51.280;12.584;2022-08-03T19:17:34;2.00;;;1.20;;
14001;SDS011;7076;51.280;12.584;2022-08-03T19:22:41;2.63;;;1.55;;
14001;SDS011;7076;51.280;12.584;2022-08-03T19:27:46;2.88;;;1.48;;
14001;SDS011;7076;51.280;12.584;2022-08-03T19:32:51;2.72;;;1.45;;
14001;SDS011;7076;51.280;12.584;2022-08-03T19:37:56;3.17;;;1.55;;
14001;SDS011;7076;51.280;12.584;2022-08-03T19:43:02;2.13;;;1.40;;
14001;SDS011;7076;51.280;12.584;2022-08-03T19:48:19;2.97;;;1.65;;
14001;SDS011;7076;51.280;12.584;2022-08-03T19:53:23;1.88;;;1.50;;
14001;SDS011;7076;51.280;12.584;2022-08-03T19:58:36;5.13;;;1.60;;
14001;SDS011;7076;51.280;12.584;2022-08-03T20:03:41;2.05;;;1.23;;
14001;SDS011;7076;51.280;12.584;2022-08-03T20:08:48;1.67;;;1.10;;
14001;SDS011;7076;51.280;12.584;2022-08-03T20:13:52;2.63;;;1.48;;
14001;SDS011;7076;51.280;12.584;2022-08-03T20:18:58;1.50;;;1.40;;
14001;SDS011;7076;51.280;12.584;2022-08-03T20:24:02;1.58;;;1.42;;
14001;SDS011;7076;51.280;12.584;2022-08-03T20:29:26;1.70;;;1.35;;
14001;SDS011;7076;51.280;12.584;2022-08-03T20:34:52;2.90;;;1.35;;
14001;SDS011;7076;51.280;12.584;2022-08-03T20:39:55;1.77;;;1.42;;
14001;SDS011;7076;51.280;12.584;2022-08-03T20:44:58;2.17;;;1.25;;
14001;SDS011;7076;51.280;12.584;2022-08-03T20:50:13;3.25;;;1.40;;
14001;SDS011;7076;51.280;12.584;2022-08-03T20:55:17;2.10;;;1.60;;
14001;SDS011;7076;51.280;12.584;2022-08-03T21:00:40;1.67;;;1.42;;
14001;SDS011;7076;51.280;12.584;2022-08-03T21:05:44;1.77;;;1.67;;
14001;SDS011;7076;51.280;12.584;2022-08-03T21:10:53;2.40;;;1.35;;
14001;SDS011;7076;51.280;12.584;2022-08-03T21:15:58;2.15;;;1.48;;
14001;SDS011;7076;51.280;12.584;2022-08-03T21:21:16;2.15;;;1.42;;
14001;SDS011;7076;51.280;12.584;2022-08-03T21:26:20;1.85;;;1.55;;
14001;SDS011;7076;51.280;12.584;2022-08-03T21:31:25;1.70;;;1.55;;
14001;SDS011;7076;51.280;12.584;2022-08-03T21:36:30;2.03;;;1.83;;
14001;SDS011;7076;51.280;12.584;2022-08-03T21:41:36;2.35;;;1.60;;
14001;SDS011;7076;51.280;12.584;2022-08-03T21:46:39;2.75;;;1.70;;
14001;SDS011;7076;51.280;12.584;2022-08-03T21:51:43;1.80;;;1.70;;
14001;SDS011;7076;51.280;12.584;2022-08-03T21:56:47;2.35;;;1.88;;
14001;SDS011;7076;51.280;12.584;2022-08-03T22:01:52;1.70;;;1.60;;
14001;SDS011;7076;51.280;12.584;2022-08-03T22:07:00;2.92;;;1.77;;
14001;SDS011;7076;51.280;12.584;2022-08-03T22:12:03;1.50;;;1.40;;
14001;SDS011;7076;51.280;12.584;2022-08-03T22:17:07;2.38;;;1.63;;
14001;SDS011;7076;51.280;12.584;2022-08-03T22:22:12;1.55;;;1.45;;
14001;SDS011;7076;51.280;12.584;2022-08-03T22:27:15;1.58;;;1.48;;
14001;SDS011;7076;51.280;12.584;2022-08-03T22:32:34;2.55;;;1.73;;
14001;SDS011;7076;51.280;12.584;2022-08-03T22:37:40;1.67;;;1.58;;
14001;SDS011;7076;51.280;12.584;2022-08-03T22:42:43;5.43;;;1.52;;
14001;SDS011;7076;51.280;12.584;2022-08-03T22:47:52;7.47;;;1.50;;
14001;SDS011;7076;51.280;12.584;2022-08-03T22:52:57;1.02;;;1.00;;
14001;SDS011;7076;51.280;12.584;2022-08-03T22:58:01;4.93;;;1.50;;
14001;SDS011;7076;51.280;12.584;2022-08-03T23:03:03;1.75;;;1.65;;
14001;SDS011;7076;51.280;12.584;2022-08-03T23:08:09;1.88;;;1.45;;
14001;SDS011;7076;51.280;12.584;2022-08-03T23:13:14;2.15;;;1.55;;
14001;SDS011;7076;51.280;12.584;2022-08-03T23:18:18;2.83;;;2.13;;
14001;SDS011;7076;51.280;12.584;2022-08-03T23:23:23;3.13;;;2.10;;
14001;SDS011;7076;51.280;12.584;2022-08-03T23:28:26;3.28;;;2.30;;
14001;SDS011;7076;51.280;12.584;2022-08-03T23:33:31;2.90;;;2.20;;
14001;SDS011;7076;51.280;12.584;2022-08-03T23:38:35;3.13;;;2.22;;
14001;SDS011;7076;51.280;12.584;2022-08-03T23:43:38;2.17;;;1.83;;
14001;SDS011;7076;51.280;12.584;2022-08-03T23:48:54;3.13;;;2.13;;
14001;SDS011;7076;51.280;12.584;2022-08-03T23:54:04;2.47;;;2.20;;
14001;SDS011;7076;51.280;12.584;2022-08-03T23:59:13;4.32;;;2.20;;
